createdAt,value
2018-01-17T00:00:26.687Z,0.87
2018-01-17T00:02:54.940Z,1.20
2018-01-17T00:05:22.421Z,2.40
2018-01-17T00:07:49.909Z,2.53
2018-01-17T00:10:17.389Z,1.07
2018-01-17T00:12:44.869Z,1.30
2018-01-17T00:15:12.307Z,1.83
2018-01-17T00:17:39.762Z,3.70
2018-01-17T00:20:07.202Z,2.63
2018-01-17T00:22:41.514Z,1.67
2018-01-17T00:25:08.947Z,2.60
2018-01-17T00:27:36.386Z,1.83
2018-01-17T00:30:04.603Z,1.20
2018-01-17T00:32:32.055Z,1.33
2018-01-17T00:34:59.504Z,1.20
2018-01-17T00:37:26.960Z,1.53
2018-01-17T00:39:54.391Z,0.70
2018-01-17T00:42:22.602Z,1.60
2018-01-17T00:44:50.062Z,1.77
2018-01-17T00:47:18.275Z,1.23
2018-01-17T00:49:45.715Z,1.03
2018-01-17T00:52:13.167Z,4.33
2018-01-17T00:54:40.631Z,1.50
2018-01-17T00:57:08.075Z,4.47
2018-01-17T00:59:35.526Z,2.07
2018-01-17T01:02:02.966Z,1.30
2018-01-17T01:04:30.419Z,1.70
2018-01-17T01:06:57.873Z,1.60
2018-01-17T01:09:25.316Z,2.37
2018-01-17T01:11:52.754Z,2.80
2018-01-17T01:14:20.984Z,1.60
2018-01-17T01:16:49.282Z,1.47
2018-01-17T01:19:16.735Z,3.43
2018-01-17T01:21:44.175Z,1.20
2018-01-17T01:24:11.622Z,2.23
2018-01-17T01:26:39.062Z,1.80
2018-01-17T01:29:06.514Z,4.20
2018-01-17T01:31:34.000Z,1.87
2018-01-17T01:34:01.481Z,4.20
2018-01-17T01:36:28.953Z,1.60
2018-01-17T01:38:57.171Z,1.33
2018-01-17T01:41:24.654Z,2.20
2018-01-17T01:43:52.144Z,1.00
2018-01-17T01:46:20.392Z,1.40
2018-01-17T01:48:59.765Z,2.50
2018-01-17T01:51:27.244Z,0.80
2018-01-17T01:53:54.727Z,2.03
2018-01-17T01:56:22.213Z,1.20
2018-01-17T01:58:49.697Z,1.63
2018-01-17T02:01:17.177Z,1.57
2018-01-17T02:03:44.661Z,0.90
2018-01-17T02:06:12.140Z,1.67
2018-01-17T02:08:39.620Z,1.53
2018-01-17T02:11:07.112Z,0.90
2018-01-17T02:13:34.588Z,2.00
2018-01-17T02:16:02.076Z,2.93
2018-01-17T02:18:30.281Z,1.63
2018-01-17T02:20:57.746Z,0.90
2018-01-17T02:23:25.196Z,1.33
2018-01-17T02:25:52.647Z,1.17
2018-01-17T02:28:20.091Z,1.53
2018-01-17T02:30:47.548Z,2.10
2018-01-17T02:33:15.001Z,0.90
2018-01-17T02:35:42.454Z,1.20
2018-01-17T02:38:09.902Z,0.70
2018-01-17T02:40:40.320Z,0.80
2018-01-17T02:43:08.583Z,0.80
2018-01-17T02:45:36.898Z,2.00
2018-01-17T02:48:04.371Z,1.27
2018-01-17T02:50:31.855Z,0.97
2018-01-17T02:52:59.326Z,1.50
2018-01-17T02:55:26.775Z,1.60
2018-01-17T02:57:54.223Z,0.93
2018-01-17T03:00:21.680Z,2.60
2018-01-17T03:02:49.135Z,1.40
2018-01-17T03:05:16.595Z,0.60
2018-01-17T03:07:44.046Z,1.13
2018-01-17T03:10:11.486Z,3.27
2018-01-17T03:12:38.943Z,2.43
2018-01-17T03:15:06.398Z,0.83
2018-01-17T03:17:33.858Z,1.80
2018-01-17T03:20:01.314Z,1.40
2018-01-17T03:22:28.767Z,0.50
2018-01-17T03:24:56.231Z,2.23
2018-01-17T03:27:23.677Z,0.60
2018-01-17T03:29:51.136Z,1.20
2018-01-17T03:32:18.590Z,2.50
2018-01-17T03:34:46.031Z,0.87
2018-01-17T03:37:13.484Z,1.47
2018-01-17T03:39:40.939Z,4.33
2018-01-17T03:42:08.395Z,1.93
2018-01-17T03:44:35.843Z,2.70
2018-01-17T03:47:03.291Z,1.40
2018-01-17T03:49:30.736Z,1.07
2018-01-17T03:51:58.182Z,2.33
2018-01-17T03:54:26.396Z,1.23
2018-01-17T03:56:53.846Z,1.60
2018-01-17T03:59:21.291Z,3.63
2018-01-17T04:01:48.738Z,1.17
2018-01-17T04:04:16.180Z,1.60
2018-01-17T04:06:44.410Z,2.40
2018-01-17T04:09:11.858Z,3.87
2018-01-17T04:11:39.302Z,1.17
2018-01-17T04:14:06.750Z,3.20
2018-01-17T04:16:34.214Z,5.60
2018-01-17T04:19:01.672Z,1.33
2018-01-17T04:21:29.144Z,5.57
2018-01-17T04:23:56.582Z,3.30
2018-01-17T04:26:24.027Z,3.47
2018-01-17T04:28:51.470Z,2.57
2018-01-17T04:31:18.914Z,0.73
2018-01-17T04:33:47.129Z,0.97
2018-01-17T04:36:15.299Z,1.50
2018-01-17T04:38:42.758Z,1.10
2018-01-17T04:41:10.211Z,0.97
2018-01-17T04:43:37.678Z,1.37
2018-01-17T04:46:06.075Z,1.57
2018-01-17T04:48:33.531Z,1.43
2018-01-17T04:51:00.982Z,2.20
2018-01-17T04:53:28.451Z,1.03
2018-01-17T04:55:55.903Z,0.80
2018-01-17T04:58:23.362Z,0.80
2018-01-17T05:00:50.810Z,0.40
2018-01-17T05:03:18.258Z,3.50
2018-01-17T05:05:45.715Z,0.60
2018-01-17T05:08:13.174Z,1.77
2018-01-17T05:10:40.631Z,1.07
2018-01-17T05:13:08.083Z,0.73
2018-01-17T05:15:35.527Z,2.20
2018-01-17T05:18:02.982Z,3.20
2018-01-17T05:20:31.146Z,0.50
2018-01-17T05:22:59.371Z,0.60
2018-01-17T05:25:26.827Z,1.90
2018-01-17T05:27:54.283Z,0.60
2018-01-17T05:30:21.739Z,0.70
2018-01-17T05:32:49.282Z,1.53
2018-01-17T05:35:16.782Z,0.60
2018-01-17T05:37:44.342Z,0.80
2018-01-17T05:40:11.863Z,2.30
2018-01-17T05:42:39.315Z,1.30
2018-01-17T05:45:06.767Z,1.00
2018-01-17T05:47:34.223Z,1.20
2018-01-17T05:50:01.776Z,4.73
2018-01-17T05:52:29.267Z,1.47
2018-01-17T05:54:57.507Z,0.70
2018-01-17T05:57:25.038Z,1.10
2018-01-17T05:59:52.573Z,6.40
2018-01-17T06:02:20.059Z,1.60
2018-01-17T06:04:47.585Z,1.40
2018-01-17T06:07:15.075Z,2.00
2018-01-17T06:09:42.584Z,4.80
2018-01-17T06:12:10.095Z,5.07
2018-01-17T06:14:37.611Z,2.50
2018-01-17T06:17:05.099Z,0.93
2018-01-17T06:19:32.567Z,3.60
2018-01-17T06:22:00.040Z,1.57
2018-01-17T06:24:27.491Z,2.00
2018-01-17T06:26:54.945Z,1.77
2018-01-17T06:29:22.666Z,0.80
2018-01-17T06:31:50.127Z,4.10
2018-01-17T06:34:17.571Z,1.73
2018-01-17T06:36:45.011Z,3.50
2018-01-17T06:39:13.226Z,0.70
2018-01-17T06:41:40.676Z,1.27
2018-01-17T06:44:08.139Z,1.97
2018-01-17T06:46:35.594Z,1.90
2018-01-17T06:49:03.050Z,1.93
2018-01-17T06:51:30.507Z,3.47
2018-01-17T06:53:57.971Z,1.37
2018-01-17T06:56:25.422Z,1.20
2018-01-17T06:58:52.874Z,2.70
2018-01-17T07:01:20.330Z,1.77
2018-01-17T07:03:47.787Z,3.30
2018-01-17T07:06:15.242Z,1.53
2018-01-17T07:08:42.685Z,0.90
2018-01-17T07:11:10.142Z,3.00
2018-01-17T07:13:37.582Z,2.60
2018-01-17T07:16:05.799Z,1.57
2018-01-17T07:18:33.244Z,1.60
2018-01-17T07:21:00.711Z,1.37
2018-01-17T07:23:28.161Z,0.80
2018-01-17T07:26:17.052Z,1.83
2018-01-17T07:28:44.508Z,1.63
2018-01-17T07:31:11.958Z,1.13
2018-01-17T07:33:39.420Z,1.70
2018-01-17T07:36:06.879Z,1.67
2018-01-17T07:38:34.334Z,0.90
2018-01-17T07:41:01.786Z,3.00
2018-01-17T07:43:29.232Z,1.00
2018-01-17T07:45:56.692Z,1.47
2018-01-17T07:48:24.886Z,1.00
2018-01-17T07:50:52.335Z,2.20
2018-01-17T07:53:19.778Z,1.70
2018-01-17T07:55:47.243Z,1.23
2018-01-17T07:58:14.699Z,2.93
2018-01-17T08:00:42.143Z,1.27
2018-01-17T08:03:09.597Z,1.87
2018-01-17T08:05:37.060Z,3.23
2018-01-17T08:08:04.506Z,0.90
2018-01-17T08:10:31.962Z,2.50
2018-01-17T08:13:00.024Z,1.30
2018-01-17T08:15:27.467Z,1.47
2018-01-17T08:17:54.923Z,1.10
2018-01-17T08:20:22.373Z,1.27
2018-01-17T08:22:50.590Z,1.83
2018-01-17T08:25:18.079Z,3.50
2018-01-17T08:27:46.286Z,3.23
2018-01-17T08:30:13.738Z,2.83
2018-01-17T08:32:41.203Z,1.20
2018-01-17T08:35:08.650Z,3.13
2018-01-17T08:37:36.111Z,2.20
2018-01-17T08:40:03.566Z,2.47
2018-01-17T08:42:31.027Z,3.30
2018-01-17T08:44:58.480Z,4.30
2018-01-17T08:47:25.938Z,3.77
2018-01-17T08:49:53.442Z,4.37
2018-01-17T08:52:21.674Z,1.10
2018-01-17T08:54:49.119Z,2.90
2018-01-17T08:57:16.591Z,7.17
2018-01-17T08:59:44.030Z,3.43
2018-01-17T09:02:11.505Z,3.70
2018-01-17T09:04:38.947Z,2.50
2018-01-17T09:07:06.738Z,3.43
2018-01-17T09:09:36.178Z,6.17
2018-01-17T09:12:04.398Z,2.50
2018-01-17T09:14:31.866Z,4.23
2018-01-17T09:16:59.332Z,3.07
2018-01-17T09:19:26.778Z,2.00
2018-01-17T09:21:54.230Z,1.37
2018-01-17T09:24:21.694Z,1.93
2018-01-17T09:26:49.143Z,1.77
2018-01-17T09:29:16.604Z,4.43
2018-01-17T09:31:44.051Z,1.83
2018-01-17T09:34:11.515Z,3.23
2018-01-17T09:36:38.962Z,4.50
2018-01-17T09:39:06.410Z,1.77
2018-01-17T09:41:33.862Z,1.33
2018-01-17T09:44:01.321Z,2.63
2018-01-17T09:46:28.770Z,2.87
2018-01-17T09:48:56.995Z,3.77
2018-01-17T09:51:24.439Z,2.10
2018-01-17T09:53:51.895Z,2.20
2018-01-17T09:56:19.379Z,3.70
2018-01-17T09:58:47.603Z,2.93
2018-01-17T10:01:15.051Z,2.20
2018-01-17T10:03:42.500Z,1.83
2018-01-17T10:06:09.943Z,0.70
2018-01-17T10:08:37.395Z,1.70
2018-01-17T10:11:04.839Z,1.40
2018-01-17T10:13:33.110Z,2.10
2018-01-17T10:16:01.322Z,2.80
2018-01-17T10:18:28.774Z,2.20
2018-01-17T10:20:56.223Z,2.97
2018-01-17T10:23:23.670Z,2.03
2018-01-17T10:25:51.119Z,1.30
2018-01-17T10:28:19.607Z,2.30
2018-01-17T10:30:47.046Z,1.37
2018-01-17T10:33:15.290Z,1.63
2018-01-17T10:35:43.641Z,1.20
2018-01-17T10:38:11.096Z,1.10
2018-01-17T10:40:38.681Z,6.10
2018-01-17T10:43:06.115Z,1.23
2018-01-17T10:45:33.583Z,1.30
2018-01-17T10:48:01.053Z,2.70
2018-01-17T10:50:28.503Z,2.73
2018-01-17T10:52:55.961Z,4.30
2018-01-17T10:55:23.421Z,1.80
2018-01-17T10:57:50.863Z,3.00
2018-01-17T11:00:18.315Z,2.17
2018-01-17T11:02:45.776Z,2.03
2018-01-17T11:05:13.235Z,1.20
2018-01-17T11:07:40.681Z,2.90
2018-01-17T11:10:08.134Z,4.30
2018-01-17T11:12:35.587Z,4.47
2018-01-17T11:15:04.845Z,1.63
2018-01-17T11:17:33.071Z,2.40
2018-01-17T11:20:00.552Z,2.47
2018-01-17T11:22:28.075Z,1.50
2018-01-17T11:24:56.718Z,2.30
2018-01-17T11:27:24.169Z,3.27
2018-01-17T11:29:51.625Z,1.30
2018-01-17T11:32:19.078Z,4.10
2018-01-17T11:34:46.538Z,3.30
2018-01-17T11:37:14.179Z,2.80
2018-01-17T11:39:41.642Z,1.90
2018-01-17T11:42:09.116Z,2.33
2018-01-17T11:44:36.571Z,4.23
2018-01-17T11:47:04.040Z,3.57
2018-01-17T11:49:31.492Z,4.43
2018-01-17T11:51:58.996Z,3.47
2018-01-17T11:54:26.444Z,4.30
2018-01-17T11:56:53.926Z,1.70
2018-01-17T11:59:21.375Z,7.73
2018-01-17T12:01:48.841Z,4.40
2018-01-17T12:04:16.319Z,2.90
2018-01-17T12:06:43.822Z,2.40
2018-01-17T12:09:11.342Z,3.37
2018-01-17T12:11:39.568Z,3.13
2018-01-17T12:14:07.056Z,6.53
2018-01-17T12:16:35.309Z,7.20
2018-01-17T12:19:02.800Z,8.20
2018-01-17T12:21:30.325Z,3.40
2018-01-17T12:23:57.816Z,4.67
2018-01-17T12:26:26.088Z,4.10
2018-01-17T12:28:53.564Z,6.40
2018-01-17T12:31:21.061Z,5.37
2018-01-17T12:33:48.540Z,5.07
2018-01-17T12:36:16.040Z,5.03
2018-01-17T12:38:43.490Z,7.50
2018-01-17T12:41:11.705Z,3.47
2018-01-17T12:43:39.152Z,5.20
2018-01-17T12:46:06.610Z,3.23
2018-01-17T12:48:34.050Z,3.27
2018-01-17T12:51:01.507Z,9.10
2018-01-17T12:53:28.951Z,3.33
2018-01-17T12:55:56.403Z,2.83
2018-01-17T12:58:24.607Z,2.80
2018-01-17T13:00:52.068Z,4.57
2018-01-17T13:03:19.579Z,11.43
2018-01-17T13:05:47.791Z,3.00
2018-01-17T13:08:15.247Z,6.80
2018-01-17T13:10:42.690Z,5.90
2018-01-17T13:13:10.144Z,14.07
2018-01-17T13:15:37.590Z,10.40
2018-01-17T13:18:05.862Z,9.53
2018-01-17T13:20:33.259Z,8.40
2018-01-17T13:23:00.732Z,6.10
2018-01-17T13:25:28.188Z,5.27
2018-01-17T13:27:55.640Z,6.47
2018-01-17T13:30:23.087Z,4.97
2018-01-17T13:32:50.543Z,3.77
2018-01-17T13:35:17.986Z,7.47
2018-01-17T13:37:45.440Z,3.90
2018-01-17T13:40:12.882Z,2.93
2018-01-17T13:42:40.328Z,7.80
2018-01-17T13:45:07.767Z,5.67
2018-01-17T13:47:35.982Z,10.07
2018-01-17T13:50:03.450Z,7.33
2018-01-17T13:52:30.899Z,10.80
2018-01-17T13:54:58.348Z,9.00
2018-01-17T13:57:25.808Z,5.73
2018-01-17T13:59:53.262Z,15.87
2018-01-17T14:02:20.703Z,5.13
2018-01-17T14:04:48.143Z,7.87
2018-01-17T14:07:16.356Z,5.50
2018-01-17T14:09:43.799Z,14.50
2018-01-17T14:12:11.256Z,9.03
2018-01-17T14:14:38.699Z,11.80
2018-01-17T14:17:06.903Z,5.23
2018-01-17T14:19:34.359Z,3.47
2018-01-17T14:22:01.819Z,4.00
2018-01-17T14:24:29.268Z,9.57
2018-01-17T14:26:56.711Z,6.47
2018-01-17T14:29:24.159Z,3.93
2018-01-17T14:31:51.602Z,7.40
2018-01-17T14:34:19.813Z,5.10
2018-01-17T14:36:47.255Z,7.60
2018-01-17T14:39:14.707Z,7.20
2018-01-17T14:41:42.146Z,8.00
2018-01-17T14:44:10.358Z,3.53
2018-01-17T14:46:37.799Z,4.57
2018-01-17T14:49:05.243Z,6.80
2018-01-17T14:51:32.695Z,7.13
2018-01-17T14:54:00.911Z,5.07
2018-01-17T14:56:28.359Z,11.03
2018-01-17T14:58:55.806Z,8.27
2018-01-17T15:01:23.251Z,7.17
2018-01-17T15:07:08.701Z,10.03
2018-01-17T15:09:36.159Z,5.37
2018-01-17T15:12:03.603Z,7.63
2018-01-17T15:14:31.067Z,9.83
2018-01-17T15:16:58.512Z,5.40
2018-01-17T15:19:25.966Z,4.47
2018-01-17T15:21:53.419Z,9.37
2018-01-17T15:24:20.877Z,9.93
2018-01-17T15:26:48.319Z,4.60
2018-01-17T15:29:15.771Z,8.10
2018-01-17T15:31:43.222Z,6.43
2018-01-17T15:34:10.680Z,7.80
2018-01-17T15:36:38.129Z,6.03
2018-01-17T15:39:05.568Z,6.43
2018-01-17T15:41:33.072Z,8.63
2018-01-17T15:44:00.521Z,8.73
2018-01-17T15:46:27.968Z,3.87
2018-01-17T15:48:55.427Z,10.37
2018-01-17T15:51:22.883Z,11.60
2018-01-17T15:53:50.334Z,7.93
2018-01-17T15:56:17.790Z,10.43
2018-01-17T15:58:45.230Z,7.97
2018-01-17T16:01:12.679Z,7.30
2018-01-17T16:03:40.114Z,8.17
2018-01-17T16:06:08.339Z,12.47
2018-01-17T16:08:35.796Z,9.70
2018-01-17T16:11:03.247Z,6.60
2018-01-17T16:13:30.720Z,7.37
2018-01-17T16:15:58.183Z,6.47
2018-01-17T16:18:25.630Z,8.03
2018-01-17T16:20:53.079Z,5.93
2018-01-17T16:23:20.528Z,7.47
2018-01-17T16:25:47.986Z,14.20
2018-01-17T16:28:15.442Z,5.40
2018-01-17T16:30:42.894Z,4.37
2018-01-17T16:33:10.343Z,9.03
2018-01-17T16:35:37.805Z,12.70
2018-01-17T16:38:05.247Z,6.80
2018-01-17T16:40:32.699Z,12.70
2018-01-17T16:43:00.151Z,13.13
2018-01-17T16:45:28.367Z,6.87
2018-01-17T16:47:55.814Z,11.73
2018-01-17T16:50:23.272Z,8.77
2018-01-17T16:52:50.816Z,14.70
2018-01-17T16:55:18.299Z,8.93
2018-01-17T16:57:45.748Z,8.47
2018-01-17T17:00:13.211Z,7.00
2018-01-17T17:02:40.672Z,12.07
2018-01-17T17:05:08.114Z,9.20
2018-01-17T17:07:35.572Z,8.70
2018-01-17T17:10:03.023Z,8.40
2018-01-17T17:12:30.506Z,11.70
2018-01-17T17:14:57.946Z,9.80
2018-01-17T17:17:25.398Z,9.90
2018-01-17T17:19:52.847Z,11.57
2018-01-17T17:22:20.303Z,6.70
2018-01-17T17:24:47.767Z,10.10
2018-01-17T17:27:15.219Z,11.13
2018-01-17T17:29:42.674Z,18.07
2018-01-17T17:32:11.424Z,11.87
2018-01-17T17:34:39.649Z,15.53
2018-01-17T17:37:07.106Z,20.73
2018-01-17T17:39:34.559Z,11.93
2018-01-17T17:42:02.006Z,11.53
2018-01-17T17:44:29.465Z,13.10
2018-01-17T17:46:56.928Z,17.90
2018-01-17T17:49:24.395Z,15.00
2018-01-17T17:51:51.861Z,12.40
2018-01-17T17:54:19.307Z,11.57
2018-01-17T17:56:46.763Z,13.70
2018-01-17T17:59:14.207Z,8.73
2018-01-17T18:01:41.670Z,9.90
2018-01-17T18:04:09.122Z,16.30
2018-01-17T18:06:36.586Z,10.50
2018-01-17T18:09:04.068Z,15.07
2018-01-17T18:11:31.531Z,16.30
2018-01-17T18:13:58.978Z,12.33
2018-01-17T18:16:26.448Z,16.50
2018-01-17T18:18:54.684Z,11.23
2018-01-17T18:21:22.137Z,10.53
2018-01-17T18:23:49.606Z,12.63
2018-01-17T18:26:17.094Z,15.10
2018-01-17T18:28:44.510Z,7.23
2018-01-17T18:31:11.966Z,16.33
2018-01-17T18:33:39.422Z,16.87
2018-01-17T18:36:06.898Z,6.10
2018-01-17T18:38:34.351Z,12.07
2018-01-17T18:41:02.020Z,13.13
2018-01-17T18:43:29.474Z,12.40
2018-01-17T18:45:56.934Z,9.00
2018-01-17T18:48:24.396Z,9.30
2018-01-17T18:50:51.843Z,11.77
2018-01-17T18:53:19.302Z,11.43
2018-01-17T18:55:46.775Z,13.23
2018-01-17T18:58:14.220Z,9.80
2018-01-17T19:00:41.675Z,18.13
2018-01-17T19:03:09.135Z,13.93
2018-01-17T19:05:36.587Z,12.43
2018-01-17T19:08:04.038Z,12.70
2018-01-17T19:10:31.488Z,6.80
2018-01-17T19:12:58.938Z,9.70
2018-01-17T19:15:26.394Z,9.20
2018-01-17T19:17:53.852Z,15.60
2018-01-17T19:20:21.310Z,14.43
2018-01-17T19:22:48.765Z,8.73
2018-01-17T19:25:16.227Z,12.17
2018-01-17T19:27:43.687Z,14.10
2018-01-17T19:30:11.143Z,14.73
2018-01-17T19:32:38.595Z,12.50
2018-01-17T19:35:06.043Z,13.70
2018-01-17T19:37:33.494Z,13.70
2018-01-17T19:40:00.964Z,14.53
2018-01-17T19:42:29.575Z,14.87
2018-01-17T19:44:57.019Z,8.83
2018-01-17T19:47:24.512Z,11.60
2018-01-17T19:49:52.726Z,12.80
2018-01-17T19:52:20.216Z,12.70
2018-01-17T19:54:47.662Z,8.60
2018-01-17T19:57:15.124Z,18.63
2018-01-17T19:59:42.620Z,11.00
2018-01-17T20:02:10.072Z,9.80
2018-01-17T20:04:37.526Z,13.20
2018-01-17T20:07:04.973Z,11.47
2018-01-17T20:09:33.247Z,14.53
2018-01-17T20:12:00.690Z,13.17
2018-01-17T20:14:28.147Z,15.70
2018-01-17T20:16:55.645Z,17.03
2018-01-17T20:19:23.153Z,13.87
2018-01-17T20:21:50.595Z,8.70
2018-01-17T20:24:18.047Z,6.33
2018-01-17T20:26:45.511Z,20.30
2018-01-17T20:29:13.027Z,18.10
2018-01-17T20:31:40.462Z,9.80
2018-01-17T20:34:08.683Z,12.33
2018-01-17T20:36:36.134Z,20.00
2018-01-17T20:39:03.591Z,12.13
2018-01-17T20:41:31.085Z,10.70
2018-01-17T20:43:58.542Z,8.53
2018-01-17T20:46:26.034Z,10.83
2018-01-17T20:48:54.263Z,10.47
2018-01-17T20:51:21.764Z,16.10
2018-01-17T20:53:50.049Z,10.17
2018-01-17T20:56:17.593Z,23.40
2018-01-17T20:58:45.816Z,14.93
2018-01-17T21:01:13.289Z,11.67
2018-01-17T21:03:40.792Z,16.43
2018-01-17T21:06:08.258Z,14.43
2018-01-17T21:08:35.707Z,12.20
2018-01-17T21:11:03.162Z,16.00
2018-01-17T21:13:30.609Z,18.07
2018-01-17T21:15:58.852Z,11.93
2018-01-17T21:18:30.239Z,10.57
2018-01-17T21:20:57.731Z,13.80
2018-01-17T21:23:25.187Z,12.97
2018-01-17T21:25:52.638Z,10.20
2018-01-17T21:28:20.070Z,15.17
2018-01-17T21:30:48.543Z,9.37
2018-01-17T21:33:16.855Z,14.23
2018-01-17T21:35:44.347Z,20.90
2018-01-17T21:38:11.825Z,6.97
2018-01-17T21:40:40.043Z,11.97
2018-01-17T21:43:13.068Z,7.30
2018-01-17T21:45:46.235Z,7.67
2018-01-17T21:48:13.746Z,9.60
2018-01-17T21:50:41.335Z,16.00
2018-01-17T21:53:08.777Z,8.67
2018-01-17T21:55:36.234Z,14.87
2018-01-17T21:58:03.691Z,7.00
2018-01-17T22:00:31.780Z,10.67
2018-01-17T22:02:59.223Z,13.33
2018-01-17T22:05:26.711Z,12.60
2018-01-17T22:07:54.166Z,8.67
2018-01-17T22:10:21.610Z,6.30
2018-01-17T22:12:49.136Z,9.13
2018-01-17T22:15:16.640Z,7.77
2018-01-17T22:17:44.087Z,16.80
2018-01-17T22:20:11.581Z,7.80
2018-01-17T22:22:39.320Z,7.60
2018-01-17T22:25:06.782Z,8.80
2018-01-17T22:27:34.303Z,7.97
2018-01-17T22:30:01.764Z,7.80
2018-01-17T22:32:29.239Z,5.77
2018-01-17T22:34:56.728Z,6.00
2018-01-17T22:37:24.176Z,10.80
2018-01-17T22:39:51.620Z,7.90
2018-01-17T22:42:19.075Z,6.13
2018-01-17T22:44:46.518Z,6.53
2018-01-17T22:47:17.327Z,8.83
2018-01-17T22:49:44.986Z,8.97
2018-01-17T22:52:12.444Z,7.40
2018-01-17T22:54:39.898Z,12.17
2018-01-17T22:57:07.364Z,3.13
2018-01-17T22:59:34.822Z,4.33
2018-01-17T23:02:02.278Z,4.47
2018-01-17T23:04:29.722Z,2.30
2018-01-17T23:06:57.175Z,1.23
2018-01-17T23:09:24.625Z,2.37
2018-01-17T23:11:52.079Z,4.80
2018-01-17T23:14:19.525Z,3.57
2018-01-17T23:16:46.997Z,4.00
2018-01-17T23:19:14.447Z,5.80
2018-01-17T23:21:41.900Z,4.57
2018-01-17T23:24:09.367Z,5.07
2018-01-17T23:26:36.823Z,8.23
2018-01-17T23:29:04.275Z,6.03
2018-01-17T23:31:32.063Z,4.60
2018-01-17T23:33:59.991Z,5.40
2018-01-17T23:36:27.520Z,3.13
2018-01-17T23:38:55.048Z,3.40
2018-01-17T23:41:22.500Z,7.30
2018-01-17T23:43:50.007Z,6.47
2018-01-17T23:46:17.523Z,8.27
2018-01-17T23:48:46.090Z,3.70
2018-01-17T23:51:13.601Z,11.53
2018-01-17T23:53:41.116Z,8.97
2018-01-17T23:56:08.559Z,3.23
2018-01-17T23:58:36.087Z,6.17
